sensor_id;sensor_type;location;lat;lon;timestamp;P1;durP1;ratioP1;P2;durP2;ratioP2
17510;SDS011;8873;48.818;9.422;2023-08-31T00:01:31;3.15;;;2.72;;
17510;SDS011;8873;48.818;9.422;2023-08-31T00:03:59;9.80;;;3.22;;
17510;SDS011;8873;48.818;9.422;2023-08-31T00:06:27;6.20;;;3.55;;
17510;SDS011;8873;48.818;9.422;2023-08-31T00:08:54;4.10;;;2.78;;
17510;SDS011;8873;48.818;9.422;2023-08-31T00:11:22;3.15;;;2.85;;
17510;SDS011;8873;48.818;9.422;2023-08-31T00:13:51;3.17;;;2.88;;
17510;SDS011;8873;48.818;9.422;2023-08-31T00:16:23;8.50;;;3.13;;
17510;SDS011;8873;48.818;9.422;2023-08-31T00:18:51;5.50;;;3.20;;
17510;SDS011;8873;48.818;9.422;2023-08-31T00:21:19;4.72;;;3.20;;
17510;SDS011;8873;48.818;9.422;2023-08-31T00:23:46;5.90;;;3.05;;
17510;SDS011;8873;48.818;9.422;2023-08-31T00:26:14;2.95;;;2.67;;
17510;SDS011;8873;48.818;9.422;2023-08-31T00:28:42;7.15;;;3.15;;
17510;SDS011;8873;48.818;9.422;2023-08-31T00:31:11;3.83;;;3.25;;
17510;SDS011;8873;48.818;9.422;2023-08-31T00:33:39;4.20;;;3.35;;
17510;SDS011;8873;48.818;9.422;2023-08-31T00:36:06;9.20;;;3.60;;
17510;SDS011;8873;48.818;9.422;2023-08-31T00:38:34;3.70;;;3.40;;
17510;SDS011;8873;48.818;9.422;2023-08-31T00:41:02;3.47;;;3.03;;
17510;SDS011;8873;48.818;9.422;2023-08-31T00:43:29;3.33;;;3.03;;
17510;SDS011;8873;48.818;9.422;2023-08-31T00:45:57;3.60;;;3.20;;
17510;SDS011;8873;48.818;9.422;2023-08-31T00:48:26;5.90;;;3.35;;
17510;SDS011;8873;48.818;9.422;2023-08-31T00:50:54;4.25;;;3.45;;
17510;SDS011;8873;48.818;9.422;2023-08-31T00:53:22;5.88;;;3.50;;
17510;SDS011;8873;48.818;9.422;2023-08-31T00:55:50;3.90;;;3.50;;
17510;SDS011;8873;48.818;9.422;2023-08-31T00:58:18;4.55;;;3.08;;
17510;SDS011;8873;48.818;9.422;2023-08-31T01:00:46;5.15;;;3.58;;
17510;SDS011;8873;48.818;9.422;2023-08-31T01:03:19;7.60;;;3.17;;
17510;SDS011;8873;48.818;9.422;2023-08-31T01:05:54;3.75;;;3.35;;
17510;SDS011;8873;48.818;9.422;2023-08-31T01:08:26;5.10;;;3.75;;
17510;SDS011;8873;48.818;9.422;2023-08-31T01:10:58;4.45;;;3.13;;
17510;SDS011;8873;48.818;9.422;2023-08-31T01:13:28;6.07;;;3.60;;
17510;SDS011;8873;48.818;9.422;2023-08-31T01:15:59;8.18;;;3.38;;
17510;SDS011;8873;48.818;9.422;2023-08-31T01:18:27;4.15;;;3.45;;
17510;SDS011;8873;48.818;9.422;2023-08-31T01:21:00;5.40;;;3.30;;
17510;SDS011;8873;48.818;9.422;2023-08-31T01:23:29;3.63;;;3.20;;
17510;SDS011;8873;48.818;9.422;2023-08-31T01:25:59;4.88;;;3.58;;
17510;SDS011;8873;48.818;9.422;2023-08-31T01:28:28;6.15;;;3.20;;
17510;SDS011;8873;48.818;9.422;2023-08-31T01:30:55;6.10;;;3.33;;
17510;SDS011;8873;48.818;9.422;2023-08-31T01:33:23;8.27;;;4.10;;
17510;SDS011;8873;48.818;9.422;2023-08-31T01:35:50;5.97;;;3.78;;
17510;SDS011;8873;48.818;9.422;2023-08-31T01:38:22;4.43;;;3.28;;
17510;SDS011;8873;48.818;9.422;2023-08-31T01:40:53;5.10;;;3.97;;
17510;SDS011;8873;48.818;9.422;2023-08-31T01:43:23;5.05;;;3.50;;
17510;SDS011;8873;48.818;9.422;2023-08-31T01:45:51;3.80;;;3.30;;
17510;SDS011;8873;48.818;9.422;2023-08-31T01:48:19;7.47;;;3.58;;
17510;SDS011;8873;48.818;9.422;2023-08-31T01:50:47;6.20;;;3.75;;
17510;SDS011;8873;48.818;9.422;2023-08-31T01:53:14;5.10;;;3.33;;
17510;SDS011;8873;48.818;9.422;2023-08-31T01:55:42;6.60;;;4.00;;
17510;SDS011;8873;48.818;9.422;2023-08-31T01:58:09;9.35;;;4.05;;
17510;SDS011;8873;48.818;9.422;2023-08-31T02:00:38;5.05;;;3.92;;
17510;SDS011;8873;48.818;9.422;2023-08-31T02:03:06;6.40;;;4.15;;
17510;SDS011;8873;48.818;9.422;2023-08-31T02:05:34;8.57;;;3.65;;
17510;SDS011;8873;48.818;9.422;2023-08-31T02:08:02;4.65;;;3.42;;
17510;SDS011;8873;48.818;9.422;2023-08-31T02:10:29;7.40;;;4.28;;
17510;SDS011;8873;48.818;9.422;2023-08-31T02:12:57;3.78;;;3.38;;
17510;SDS011;8873;48.818;9.422;2023-08-31T02:15:25;4.20;;;3.80;;
17510;SDS011;8873;48.818;9.422;2023-08-31T02:17:54;7.15;;;3.95;;
17510;SDS011;8873;48.818;9.422;2023-08-31T02:20:21;4.35;;;3.63;;
17510;SDS011;8873;48.818;9.422;2023-08-31T02:22:49;4.60;;;3.65;;
17510;SDS011;8873;48.818;9.422;2023-08-31T02:25:16;5.82;;;4.68;;
17510;SDS011;8873;48.818;9.422;2023-08-31T02:27:44;5.82;;;3.60;;
17510;SDS011;8873;48.818;9.422;2023-08-31T02:30:11;7.90;;;4.18;;
17510;SDS011;8873;48.818;9.422;2023-08-31T02:32:39;6.93;;;4.10;;
17510;SDS011;8873;48.818;9.422;2023-08-31T02:35:08;11.20;;;4.28;;
17510;SDS011;8873;48.818;9.422;2023-08-31T02:37:36;7.38;;;3.70;;
17510;SDS011;8873;48.818;9.422;2023-08-31T02:40:03;6.53;;;4.13;;
17510;SDS011;8873;48.818;9.422;2023-08-31T02:42:32;5.90;;;4.20;;
17510;SDS011;8873;48.818;9.422;2023-08-31T02:45:00;6.95;;;4.00;;
17510;SDS011;8873;48.818;9.422;2023-08-31T02:47:27;5.30;;;4.20;;
17510;SDS011;8873;48.818;9.422;2023-08-31T02:49:55;6.90;;;4.47;;
17510;SDS011;8873;48.818;9.422;2023-08-31T02:52:24;7.15;;;4.40;;
17510;SDS011;8873;48.818;9.422;2023-08-31T02:54:52;7.93;;;4.38;;
17510;SDS011;8873;48.818;9.422;2023-08-31T02:57:20;8.43;;;4.82;;
17510;SDS011;8873;48.818;9.422;2023-08-31T02:59:49;6.55;;;4.22;;
17510;SDS011;8873;48.818;9.422;2023-08-31T03:02:16;7.03;;;4.70;;
17510;SDS011;8873;48.818;9.422;2023-08-31T03:04:44;7.72;;;4.38;;
17510;SDS011;8873;48.818;9.422;2023-08-31T03:07:12;6.82;;;4.20;;
17510;SDS011;8873;48.818;9.422;2023-08-31T03:09:42;8.85;;;4.95;;
17510;SDS011;8873;48.818;9.422;2023-08-31T03:12:10;9.52;;;3.92;;
17510;SDS011;8873;48.818;9.422;2023-08-31T03:14:37;9.85;;;4.60;;
17510;SDS011;8873;48.818;9.422;2023-08-31T03:17:05;10.55;;;4.78;;
17510;SDS011;8873;48.818;9.422;2023-08-31T03:19:32;6.60;;;3.95;;
17510;SDS011;8873;48.818;9.422;2023-08-31T03:22:01;8.07;;;4.30;;
17510;SDS011;8873;48.818;9.422;2023-08-31T03:24:29;7.35;;;4.53;;
17510;SDS011;8873;48.818;9.422;2023-08-31T03:26:57;8.02;;;4.40;;
17510;SDS011;8873;48.818;9.422;2023-08-31T03:29:25;6.60;;;3.85;;
17510;SDS011;8873;48.818;9.422;2023-08-31T03:31:55;5.82;;;4.72;;
17510;SDS011;8873;48.818;9.422;2023-08-31T03:34:22;6.10;;;4.10;;
17510;SDS011;8873;48.818;9.422;2023-08-31T03:36:50;6.80;;;4.40;;
17510;SDS011;8873;48.818;9.422;2023-08-31T03:39:17;9.50;;;4.68;;
17510;SDS011;8873;48.818;9.422;2023-08-31T03:41:45;7.00;;;4.47;;
17510;SDS011;8873;48.818;9.422;2023-08-31T03:44:14;8.68;;;4.70;;
17510;SDS011;8873;48.818;9.422;2023-08-31T03:46:42;12.95;;;4.45;;
17510;SDS011;8873;48.818;9.422;2023-08-31T03:49:09;9.88;;;4.47;;
17510;SDS011;8873;48.818;9.422;2023-08-31T03:51:37;7.82;;;4.28;;
17510;SDS011;8873;48.818;9.422;2023-08-31T03:54:04;8.00;;;3.45;;
17510;SDS011;8873;48.818;9.422;2023-08-31T03:56:32;6.90;;;4.28;;
17510;SDS011;8873;48.818;9.422;2023-08-31T03:59:02;8.38;;;4.10;;
17510;SDS011;8873;48.818;9.422;2023-08-31T04:01:31;7.30;;;4.70;;
17510;SDS011;8873;48.818;9.422;2023-08-31T04:03:59;11.23;;;4.93;;
17510;SDS011;8873;48.818;9.422;2023-08-31T04:06:26;7.15;;;4.60;;
17510;SDS011;8873;48.818;9.422;2023-08-31T04:08:54;8.55;;;4.80;;
17510;SDS011;8873;48.818;9.422;2023-08-31T04:11:22;5.60;;;4.13;;
17510;SDS011;8873;48.818;9.422;2023-08-31T04:13:50;8.95;;;4.72;;
17510;SDS011;8873;48.818;9.422;2023-08-31T04:16:17;8.85;;;4.45;;
17510;SDS011;8873;48.818;9.422;2023-08-31T04:18:46;8.60;;;4.70;;
17510;SDS011;8873;48.818;9.422;2023-08-31T04:21:17;5.68;;;4.22;;
17510;SDS011;8873;48.818;9.422;2023-08-31T04:23:45;8.48;;;4.45;;
17510;SDS011;8873;48.818;9.422;2023-08-31T04:26:12;5.30;;;4.05;;
17510;SDS011;8873;48.818;9.422;2023-08-31T04:28:40;6.30;;;4.18;;
17510;SDS011;8873;48.818;9.422;2023-08-31T04:31:08;6.05;;;4.43;;
17510;SDS011;8873;48.818;9.422;2023-08-31T04:33:37;9.77;;;5.05;;
17510;SDS011;8873;48.818;9.422;2023-08-31T04:36:06;6.82;;;4.35;;
17510;SDS011;8873;48.818;9.422;2023-08-31T04:38:34;7.63;;;4.25;;
17510;SDS011;8873;48.818;9.422;2023-08-31T04:41:01;4.75;;;3.80;;
17510;SDS011;8873;48.818;9.422;2023-08-31T04:43:29;6.55;;;4.88;;
17510;SDS011;8873;48.818;9.422;2023-08-31T04:45:57;6.72;;;3.88;;
17510;SDS011;8873;48.818;9.422;2023-08-31T04:48:25;6.22;;;4.45;;
17510;SDS011;8873;48.818;9.422;2023-08-31T04:50:55;7.75;;;4.25;;
17510;SDS011;8873;48.818;9.422;2023-08-31T04:53:24;7.90;;;4.60;;
17510;SDS011;8873;48.818;9.422;2023-08-31T04:55:52;8.45;;;4.93;;
17510;SDS011;8873;48.818;9.422;2023-08-31T04:58:20;5.63;;;4.30;;
17510;SDS011;8873;48.818;9.422;2023-08-31T05:00:47;6.32;;;4.90;;
17510;SDS011;8873;48.818;9.422;2023-08-31T05:03:15;5.35;;;3.72;;
17510;SDS011;8873;48.818;9.422;2023-08-31T05:05:43;7.20;;;4.53;;
17510;SDS011;8873;48.818;9.422;2023-08-31T05:08:10;5.65;;;4.63;;
17510;SDS011;8873;48.818;9.422;2023-08-31T05:10:39;8.65;;;3.95;;
17510;SDS011;8873;48.818;9.422;2023-08-31T05:13:06;6.45;;;4.38;;
17510;SDS011;8873;48.818;9.422;2023-08-31T05:15:34;6.43;;;4.20;;
17510;SDS011;8873;48.818;9.422;2023-08-31T05:18:02;8.32;;;4.25;;
17510;SDS011;8873;48.818;9.422;2023-08-31T05:20:30;6.05;;;4.10;;
17510;SDS011;8873;48.818;9.422;2023-08-31T05:22:57;12.18;;;4.95;;
17510;SDS011;8873;48.818;9.422;2023-08-31T05:25:25;7.32;;;4.75;;
17510;SDS011;8873;48.818;9.422;2023-08-31T05:27:55;10.27;;;4.55;;
17510;SDS011;8873;48.818;9.422;2023-08-31T05:30:23;7.55;;;4.05;;
17510;SDS011;8873;48.818;9.422;2023-08-31T05:32:50;6.57;;;3.97;;
17510;SDS011;8873;48.818;9.422;2023-08-31T05:35:18;5.88;;;3.95;;
17510;SDS011;8873;48.818;9.422;2023-08-31T05:37:45;5.57;;;4.13;;
17510;SDS011;8873;48.818;9.422;2023-08-31T05:40:13;6.90;;;4.40;;
17510;SDS011;8873;48.818;9.422;2023-08-31T05:42:40;6.78;;;4.68;;
17510;SDS011;8873;48.818;9.422;2023-08-31T05:45:10;5.47;;;4.47;;
17510;SDS011;8873;48.818;9.422;2023-08-31T05:47:38;5.85;;;4.38;;
17510;SDS011;8873;48.818;9.422;2023-08-31T05:50:06;15.15;;;4.43;;
17510;SDS011;8873;48.818;9.422;2023-08-31T05:52:34;6.40;;;4.45;;
17510;SDS011;8873;48.818;9.422;2023-08-31T05:55:01;7.47;;;3.95;;
17510;SDS011;8873;48.818;9.422;2023-08-31T05:57:29;7.97;;;4.40;;
17510;SDS011;8873;48.818;9.422;2023-08-31T05:59:56;9.52;;;4.72;;
17510;SDS011;8873;48.818;9.422;2023-08-31T06:02:25;8.38;;;4.15;;
17510;SDS011;8873;48.818;9.422;2023-08-31T06:04:54;6.60;;;4.03;;
17510;SDS011;8873;48.818;9.422;2023-08-31T06:07:21;5.95;;;3.95;;
17510;SDS011;8873;48.818;9.422;2023-08-31T06:09:49;7.63;;;4.32;;
17510;SDS011;8873;48.818;9.422;2023-08-31T06:12:17;7.95;;;4.15;;
17510;SDS011;8873;48.818;9.422;2023-08-31T06:14:44;8.57;;;4.10;;
17510;SDS011;8873;48.818;9.422;2023-08-31T06:17:12;8.82;;;4.80;;
17510;SDS011;8873;48.818;9.422;2023-08-31T06:19:42;7.53;;;4.13;;
17510;SDS011;8873;48.818;9.422;2023-08-31T06:22:10;9.25;;;4.60;;
17510;SDS011;8873;48.818;9.422;2023-08-31T06:24:37;9.52;;;4.93;;
17510;SDS011;8873;48.818;9.422;2023-08-31T06:27:05;6.60;;;4.53;;
17510;SDS011;8873;48.818;9.422;2023-08-31T06:29:32;7.05;;;4.75;;
17510;SDS011;8873;48.818;9.422;2023-08-31T06:32:00;8.18;;;4.38;;
17510;SDS011;8873;48.818;9.422;2023-08-31T06:34:27;6.95;;;4.32;;
17510;SDS011;8873;48.818;9.422;2023-08-31T06:36:58;7.60;;;4.50;;
17510;SDS011;8873;48.818;9.422;2023-08-31T06:39:25;6.03;;;4.18;;
17510;SDS011;8873;48.818;9.422;2023-08-31T06:41:53;7.85;;;4.80;;
17510;SDS011;8873;48.818;9.422;2023-08-31T06:44:20;9.75;;;4.43;;
17510;SDS011;8873;48.818;9.422;2023-08-31T06:46:48;5.55;;;4.43;;
17510;SDS011;8873;48.818;9.422;2023-08-31T06:49:15;8.50;;;3.85;;
17510;SDS011;8873;48.818;9.422;2023-08-31T06:51:43;5.65;;;3.85;;
17510;SDS011;8873;48.818;9.422;2023-08-31T06:54:14;7.57;;;4.10;;
17510;SDS011;8873;48.818;9.422;2023-08-31T06:56:45;6.25;;;3.83;;
17510;SDS011;8873;48.818;9.422;2023-08-31T06:59:12;6.38;;;3.90;;
17510;SDS011;8873;48.818;9.422;2023-08-31T07:01:40;6.55;;;4.13;;
17510;SDS011;8873;48.818;9.422;2023-08-31T07:04:07;6.38;;;3.90;;
17510;SDS011;8873;48.818;9.422;2023-08-31T07:06:35;8.65;;;3.88;;
17510;SDS011;8873;48.818;9.422;2023-08-31T07:09:03;9.20;;;5.00;;
17510;SDS011;8873;48.818;9.422;2023-08-31T07:11:33;5.47;;;3.45;;
17510;SDS011;8873;48.818;9.422;2023-08-31T07:14:01;6.88;;;3.38;;
17510;SDS011;8873;48.818;9.422;2023-08-31T07:16:29;5.10;;;3.28;;
17510;SDS011;8873;48.818;9.422;2023-08-31T07:18:56;3.60;;;3.10;;
17510;SDS011;8873;48.818;9.422;2023-08-31T07:21:24;3.65;;;2.92;;
17510;SDS011;8873;48.818;9.422;2023-08-31T07:23:52;3.05;;;2.85;;
17510;SDS011;8873;48.818;9.422;2023-08-31T07:26:20;5.95;;;2.90;;
17510;SDS011;8873;48.818;9.422;2023-08-31T07:28:49;5.50;;;3.05;;
17510;SDS011;8873;48.818;9.422;2023-08-31T07:31:17;3.90;;;3.17;;
17510;SDS011;8873;48.818;9.422;2023-08-31T07:33:44;5.18;;;2.78;;
17510;SDS011;8873;48.818;9.422;2023-08-31T07:36:12;4.97;;;2.80;;
17510;SDS011;8873;48.818;9.422;2023-08-31T07:38:41;10.13;;;2.70;;
17510;SDS011;8873;48.818;9.422;2023-08-31T07:41:09;5.95;;;2.75;;
17510;SDS011;8873;48.818;9.422;2023-08-31T07:43:36;4.38;;;2.50;;
17510;SDS011;8873;48.818;9.422;2023-08-31T07:46:17;2.88;;;1.92;;
17510;SDS011;8873;48.818;9.422;2023-08-31T07:48:45;4.93;;;2.15;;
17510;SDS011;8873;48.818;9.422;2023-08-31T07:51:16;4.93;;;2.10;;
17510;SDS011;8873;48.818;9.422;2023-08-31T07:53:49;5.57;;;2.50;;
17510;SDS011;8873;48.818;9.422;2023-08-31T07:56:16;4.07;;;1.98;;
17510;SDS011;8873;48.818;9.422;2023-08-31T07:58:44;1.92;;;1.83;;
17510;SDS011;8873;48.818;9.422;2023-08-31T08:01:12;4.22;;;2.20;;
17510;SDS011;8873;48.818;9.422;2023-08-31T08:03:41;2.03;;;1.92;;
17510;SDS011;8873;48.818;9.422;2023-08-31T08:06:08;4.72;;;2.47;;
17510;SDS011;8873;48.818;9.422;2023-08-31T08:08:39;4.28;;;2.55;;
17510;SDS011;8873;48.818;9.422;2023-08-31T08:11:07;3.63;;;2.17;;
17510;SDS011;8873;48.818;9.422;2023-08-31T08:13:35;2.15;;;1.95;;
17510;SDS011;8873;48.818;9.422;2023-08-31T08:16:02;3.70;;;2.63;;
17510;SDS011;8873;48.818;9.422;2023-08-31T08:18:30;3.92;;;2.28;;
17510;SDS011;8873;48.818;9.422;2023-08-31T08:20:59;4.22;;;2.30;;
17510;SDS011;8873;48.818;9.422;2023-08-31T08:23:26;2.45;;;2.10;;
17510;SDS011;8873;48.818;9.422;2023-08-31T08:25:56;4.57;;;2.20;;
17510;SDS011;8873;48.818;9.422;2023-08-31T08:28:26;4.03;;;2.35;;
17510;SDS011;8873;48.818;9.422;2023-08-31T08:30:54;3.75;;;2.17;;
17510;SDS011;8873;48.818;9.422;2023-08-31T08:33:21;5.20;;;2.22;;
17510;SDS011;8873;48.818;9.422;2023-08-31T08:35:49;2.97;;;2.05;;
17510;SDS011;8873;48.818;9.422;2023-08-31T08:38:18;4.95;;;2.80;;
17510;SDS011;8873;48.818;9.422;2023-08-31T08:40:46;5.90;;;2.20;;
17510;SDS011;8873;48.818;9.422;2023-08-31T08:43:14;7.82;;;2.13;;
17510;SDS011;8873;48.818;9.422;2023-08-31T08:45:41;2.92;;;2.25;;
17510;SDS011;8873;48.818;9.422;2023-08-31T08:48:12;3.40;;;2.20;;
17510;SDS011;8873;48.818;9.422;2023-08-31T08:50:40;2.25;;;1.80;;
17510;SDS011;8873;48.818;9.422;2023-08-31T08:53:08;5.13;;;2.28;;
17510;SDS011;8873;48.818;9.422;2023-08-31T08:55:38;8.75;;;2.20;;
17510;SDS011;8873;48.818;9.422;2023-08-31T08:58:05;4.60;;;2.00;;
17510;SDS011;8873;48.818;9.422;2023-08-31T09:00:33;2.33;;;1.85;;
17510;SDS011;8873;48.818;9.422;2023-08-31T09:03:05;2.30;;;2.10;;
17510;SDS011;8873;48.818;9.422;2023-08-31T09:05:33;14.52;;;2.22;;
17510;SDS011;8873;48.818;9.422;2023-08-31T09:08:01;3.25;;;1.98;;
17510;SDS011;8873;48.818;9.422;2023-08-31T09:10:35;2.42;;;2.20;;
17510;SDS011;8873;48.818;9.422;2023-08-31T09:13:08;4.68;;;2.10;;
17510;SDS011;8873;48.818;9.422;2023-08-31T09:15:36;2.47;;;2.28;;
17510;SDS011;8873;48.818;9.422;2023-08-31T09:18:04;6.60;;;2.10;;
17510;SDS011;8873;48.818;9.422;2023-08-31T09:20:34;4.40;;;2.03;;
17510;SDS011;8873;48.818;9.422;2023-08-31T09:23:09;6.22;;;2.22;;
17510;SDS011;8873;48.818;9.422;2023-08-31T09:25:40;3.35;;;2.15;;
17510;SDS011;8873;48.818;9.422;2023-08-31T09:28:09;3.20;;;2.22;;
17510;SDS011;8873;48.818;9.422;2023-08-31T09:30:37;4.22;;;2.08;;
17510;SDS011;8873;48.818;9.422;2023-08-31T09:33:06;4.65;;;2.25;;
17510;SDS011;8873;48.818;9.422;2023-08-31T09:35:34;2.30;;;1.88;;
17510;SDS011;8873;48.818;9.422;2023-08-31T09:38:07;6.38;;;2.70;;
17510;SDS011;8873;48.818;9.422;2023-08-31T09:40:34;5.22;;;2.08;;
17510;SDS011;8873;48.818;9.422;2023-08-31T09:43:02;2.90;;;2.00;;
17510;SDS011;8873;48.818;9.422;2023-08-31T09:45:31;3.15;;;2.17;;
17510;SDS011;8873;48.818;9.422;2023-08-31T09:48:02;4.70;;;2.17;;
17510;SDS011;8873;48.818;9.422;2023-08-31T09:50:31;5.65;;;2.78;;
17510;SDS011;8873;48.818;9.422;2023-08-31T09:53:00;2.92;;;2.10;;
17510;SDS011;8873;48.818;9.422;2023-08-31T09:55:28;5.00;;;3.03;;
17510;SDS011;8873;48.818;9.422;2023-08-31T09:57:56;4.35;;;2.20;;
17510;SDS011;8873;48.818;9.422;2023-08-31T10:00:41;4.07;;;2.28;;
17510;SDS011;8873;48.818;9.422;2023-08-31T10:03:09;2.33;;;2.13;;
17510;SDS011;8873;48.818;9.422;2023-08-31T10:05:44;2.88;;;1.92;;
17510;SDS011;8873;48.818;9.422;2023-08-31T10:08:11;2.30;;;2.05;;
17510;SDS011;8873;48.818;9.422;2023-08-31T10:10:39;6.95;;;2.10;;
17510;SDS011;8873;48.818;9.422;2023-08-31T10:13:07;4.28;;;2.17;;
17510;SDS011;8873;48.818;9.422;2023-08-31T10:15:36;2.50;;;1.88;;
17510;SDS011;8873;48.818;9.422;2023-08-31T10:18:05;2.25;;;1.90;;
17510;SDS011;8873;48.818;9.422;2023-08-31T10:20:33;3.35;;;2.00;;
17510;SDS011;8873;48.818;9.422;2023-08-31T10:23:02;2.38;;;2.00;;
17510;SDS011;8873;48.818;9.422;2023-08-31T10:28:16;2.22;;;2.10;;
17510;SDS011;8873;48.818;9.422;2023-08-31T10:30:47;1.90;;;1.80;;
17510;SDS011;8873;48.818;9.422;2023-08-31T10:33:30;2.28;;;2.08;;
17510;SDS011;8873;48.818;9.422;2023-08-31T10:35:58;2.30;;;1.95;;
17510;SDS011;8873;48.818;9.422;2023-08-31T10:38:26;3.13;;;2.08;;
17510;SDS011;8873;48.818;9.422;2023-08-31T10:43:43;2.25;;;2.05;;
17510;SDS011;8873;48.818;9.422;2023-08-31T10:46:29;2.33;;;2.13;;
17510;SDS011;8873;48.818;9.422;2023-08-31T10:48:58;6.22;;;2.05;;
17510;SDS011;8873;48.818;9.422;2023-08-31T10:51:26;2.50;;;1.90;;
17510;SDS011;8873;48.818;9.422;2023-08-31T10:54:04;2.50;;;1.90;;
17510;SDS011;8873;48.818;9.422;2023-08-31T10:56:32;2.60;;;2.28;;
17510;SDS011;8873;48.818;9.422;2023-08-31T10:59:00;2.20;;;1.98;;
17510;SDS011;8873;48.818;9.422;2023-08-31T11:04:15;3.63;;;2.13;;
17510;SDS011;8873;48.818;9.422;2023-08-31T11:06:43;3.35;;;2.25;;
17510;SDS011;8873;48.818;9.422;2023-08-31T11:09:17;3.17;;;2.08;;
17510;SDS011;8873;48.818;9.422;2023-08-31T11:11:45;2.17;;;1.98;;
17510;SDS011;8873;48.818;9.422;2023-08-31T11:14:13;3.65;;;1.90;;
17510;SDS011;8873;48.818;9.422;2023-08-31T11:16:41;4.60;;;2.00;;
17510;SDS011;8873;48.818;9.422;2023-08-31T11:19:08;3.15;;;1.88;;
17510;SDS011;8873;48.818;9.422;2023-08-31T11:21:37;4.10;;;2.00;;
17510;SDS011;8873;48.818;9.422;2023-08-31T11:24:05;4.90;;;2.08;;
17510;SDS011;8873;48.818;9.422;2023-08-31T11:26:34;4.38;;;2.00;;
17510;SDS011;8873;48.818;9.422;2023-08-31T11:29:05;4.70;;;2.20;;
17510;SDS011;8873;48.818;9.422;2023-08-31T11:31:33;4.43;;;1.90;;
17510;SDS011;8873;48.818;9.422;2023-08-31T11:34:05;4.05;;;2.15;;
17510;SDS011;8873;48.818;9.422;2023-08-31T11:36:33;3.33;;;2.00;;
17510;SDS011;8873;48.818;9.422;2023-08-31T11:39:02;2.38;;;2.17;;
17510;SDS011;8873;48.818;9.422;2023-08-31T11:41:31;3.55;;;2.42;;
17510;SDS011;8873;48.818;9.422;2023-08-31T11:43:59;5.82;;;2.47;;
17510;SDS011;8873;48.818;9.422;2023-08-31T11:46:27;3.00;;;2.05;;
17510;SDS011;8873;48.818;9.422;2023-08-31T11:48:54;4.88;;;2.03;;
17510;SDS011;8873;48.818;9.422;2023-08-31T11:51:22;6.35;;;2.80;;
17510;SDS011;8873;48.818;9.422;2023-08-31T11:53:50;4.57;;;1.92;;
17510;SDS011;8873;48.818;9.422;2023-08-31T11:56:19;4.93;;;2.15;;
17510;SDS011;8873;48.818;9.422;2023-08-31T11:58:46;6.72;;;2.47;;
17510;SDS011;8873;48.818;9.422;2023-08-31T12:01:30;5.22;;;2.10;;
17510;SDS011;8873;48.818;9.422;2023-08-31T12:03:57;3.00;;;2.15;;
17510;SDS011;8873;48.818;9.422;2023-08-31T12:06:25;6.55;;;2.25;;
17510;SDS011;8873;48.818;9.422;2023-08-31T12:08:53;4.07;;;2.33;;
17510;SDS011;8873;48.818;9.422;2023-08-31T12:11:22;3.50;;;2.17;;
17510;SDS011;8873;48.818;9.422;2023-08-31T12:13:50;5.65;;;2.22;;
17510;SDS011;8873;48.818;9.422;2023-08-31T12:16:17;4.18;;;2.13;;
17510;SDS011;8873;48.818;9.422;2023-08-31T12:18:45;3.95;;;2.00;;
17510;SDS011;8873;48.818;9.422;2023-08-31T12:21:13;4.90;;;2.80;;
17510;SDS011;8873;48.818;9.422;2023-08-31T12:23:41;3.30;;;1.77;;
17510;SDS011;8873;48.818;9.422;2023-08-31T12:26:08;3.13;;;2.20;;
17510;SDS011;8873;48.818;9.422;2023-08-31T12:28:37;10.27;;;2.33;;
17510;SDS011;8873;48.818;9.422;2023-08-31T12:31:05;3.25;;;2.15;;
17510;SDS011;8873;48.818;9.422;2023-08-31T12:33:32;4.47;;;2.35;;
17510;SDS011;8873;48.818;9.422;2023-08-31T12:35:59;3.72;;;2.17;;
17510;SDS011;8873;48.818;9.422;2023-08-31T12:38:30;3.17;;;2.20;;
17510;SDS011;8873;48.818;9.422;2023-08-31T12:40:57;2.67;;;1.90;;
17510;SDS011;8873;48.818;9.422;2023-08-31T12:43:25;3.25;;;2.20;;
17510;SDS011;8873;48.818;9.422;2023-08-31T12:45:54;4.55;;;2.20;;
17510;SDS011;8873;48.818;9.422;2023-08-31T12:48:22;3.72;;;2.03;;
17510;SDS011;8873;48.818;9.422;2023-08-31T12:50:49;5.70;;;2.00;;
17510;SDS011;8873;48.818;9.422;2023-08-31T12:53:17;3.97;;;1.95;;
17510;SDS011;8873;48.818;9.422;2023-08-31T12:55:44;5.25;;;2.15;;
17510;SDS011;8873;48.818;9.422;2023-08-31T12:58:12;2.63;;;2.05;;
17510;SDS011;8873;48.818;9.422;2023-08-31T13:00:39;2.67;;;2.25;;
17510;SDS011;8873;48.818;9.422;2023-08-31T13:03:08;4.47;;;2.13;;
17510;SDS011;8873;48.818;9.422;2023-08-31T13:05:38;2.50;;;2.30;;
17510;SDS011;8873;48.818;9.422;2023-08-31T13:08:06;6.07;;;2.35;;
17510;SDS011;8873;48.818;9.422;2023-08-31T13:10:34;3.22;;;2.25;;
17510;SDS011;8873;48.818;9.422;2023-08-31T13:13:01;3.72;;;2.15;;
17510;SDS011;8873;48.818;9.422;2023-08-31T13:15:31;3.17;;;2.30;;
17510;SDS011;8873;48.818;9.422;2023-08-31T13:17:58;2.47;;;2.25;;
17510;SDS011;8873;48.818;9.422;2023-08-31T13:20:27;3.05;;;2.10;;
17510;SDS011;8873;48.818;9.422;2023-08-31T13:22:55;4.90;;;2.55;;
17510;SDS011;8873;48.818;9.422;2023-08-31T13:25:22;3.08;;;2.00;;
17510;SDS011;8873;48.818;9.422;2023-08-31T13:27:52;3.63;;;2.08;;
17510;SDS011;8873;48.818;9.422;2023-08-31T13:30:20;4.15;;;2.67;;
17510;SDS011;8873;48.818;9.422;2023-08-31T13:32:47;4.88;;;2.50;;
17510;SDS011;8873;48.818;9.422;2023-08-31T13:35:15;4.05;;;2.30;;
17510;SDS011;8873;48.818;9.422;2023-08-31T13:37:44;4.90;;;2.47;;
17510;SDS011;8873;48.818;9.422;2023-08-31T13:40:12;4.82;;;2.13;;
17510;SDS011;8873;48.818;9.422;2023-08-31T13:42:49;4.10;;;2.28;;
17510;SDS011;8873;48.818;9.422;2023-08-31T13:45:20;3.60;;;2.05;;
17510;SDS011;8873;48.818;9.422;2023-08-31T13:47:47;3.60;;;2.17;;
17510;SDS011;8873;48.818;9.422;2023-08-31T13:50:15;2.83;;;2.20;;
17510;SDS011;8873;48.818;9.422;2023-08-31T13:52:43;3.60;;;2.50;;
17510;SDS011;8873;48.818;9.422;2023-08-31T13:55:11;4.82;;;2.20;;
17510;SDS011;8873;48.818;9.422;2023-08-31T13:57:41;3.83;;;1.75;;
17510;SDS011;8873;48.818;9.422;2023-08-31T14:00:09;4.07;;;2.15;;
17510;SDS011;8873;48.818;9.422;2023-08-31T14:02:37;2.80;;;2.00;;
17510;SDS011;8873;48.818;9.422;2023-08-31T14:05:05;4.28;;;2.03;;
17510;SDS011;8873;48.818;9.422;2023-08-31T14:07:34;3.78;;;1.80;;
17510;SDS011;8873;48.818;9.422;2023-08-31T14:10:02;2.45;;;1.80;;
17510;SDS011;8873;48.818;9.422;2023-08-31T14:12:32;3.22;;;1.92;;
17510;SDS011;8873;48.818;9.422;2023-08-31T14:15:00;4.15;;;2.10;;
17510;SDS011;8873;48.818;9.422;2023-08-31T14:17:30;3.63;;;2.13;;
17510;SDS011;8873;48.818;9.422;2023-08-31T14:19:58;3.47;;;1.92;;
17510;SDS011;8873;48.818;9.422;2023-08-31T14:22:27;4.15;;;2.10;;
17510;SDS011;8873;48.818;9.422;2023-08-31T14:24:55;3.88;;;2.60;;
17510;SDS011;8873;48.818;9.422;2023-08-31T14:27:24;2.90;;;1.95;;
17510;SDS011;8873;48.818;9.422;2023-08-31T14:29:53;4.43;;;2.03;;
17510;SDS011;8873;48.818;9.422;2023-08-31T14:32:20;3.95;;;2.20;;
17510;SDS011;8873;48.818;9.422;2023-08-31T14:34:48;2.63;;;1.92;;
17510;SDS011;8873;48.818;9.422;2023-08-31T14:37:16;3.13;;;2.08;;
17510;SDS011;8873;48.818;9.422;2023-08-31T14:39:43;2.00;;;1.90;;
17510;SDS011;8873;48.818;9.422;2023-08-31T14:42:11;3.33;;;2.05;;
17510;SDS011;8873;48.818;9.422;2023-08-31T14:44:38;2.85;;;2.03;;
17510;SDS011;8873;48.818;9.422;2023-08-31T14:47:07;3.33;;;2.08;;
17510;SDS011;8873;48.818;9.422;2023-08-31T14:49:38;6.38;;;2.38;;
17510;SDS011;8873;48.818;9.422;2023-08-31T14:52:05;2.75;;;2.08;;
17510;SDS011;8873;48.818;9.422;2023-08-31T14:54:33;3.95;;;2.00;;
17510;SDS011;8873;48.818;9.422;2023-08-31T14:57:01;5.47;;;2.38;;
17510;SDS011;8873;48.818;9.422;2023-08-31T14:59:29;2.50;;;2.28;;
17510;SDS011;8873;48.818;9.422;2023-08-31T15:01:57;2.47;;;2.00;;
17510;SDS011;8873;48.818;9.422;2023-08-31T15:04:26;4.85;;;2.10;;
17510;SDS011;8873;48.818;9.422;2023-08-31T15:06:53;4.00;;;2.53;;
17510;SDS011;8873;48.818;9.422;2023-08-31T15:09:22;4.80;;;2.20;;
17510;SDS011;8873;48.818;9.422;2023-08-31T15:11:50;6.03;;;2.20;;
17510;SDS011;8873;48.818;9.422;2023-08-31T15:14:17;5.32;;;2.35;;
17510;SDS011;8873;48.818;9.422;2023-08-31T15:16:45;4.63;;;2.30;;